METAR Data
IDs: Format: Raw Decoded Include TAF

Data at: 0328 UTC 19 Oct 2021

KVCT 190251Z AUTO 12005KT 10SM CLR 17/15 A3007 RMK AO2 SLP182 T01720150 53010